sensor_id;sensor_type;location;lat;lon;timestamp;pressure;altitude;pressure_sealevel;temperature;humidity
18527;BME280;9393;42.158;24.748;2023-05-09T00:00:21;99932.00;;;14.74;100.00
18527;BME280;9393;42.158;24.748;2023-05-09T00:03:26;99936.09;;;14.77;100.00
18527;BME280;9393;42.158;24.748;2023-05-09T00:06:29;99928.25;;;14.85;100.00
18527;BME280;9393;42.158;24.748;2023-05-09T00:09:33;99934.00;;;14.96;100.00
18527;BME280;9393;42.158;24.748;2023-05-09T00:12:37;99938.09;;;14.91;100.00
18527;BME280;9393;42.158;24.748;2023-05-09T00:15:42;99938.66;;;15.02;100.00
18527;BME280;9393;42.158;24.748;2023-05-09T00:18:46;99938.97;;;15.07;100.00
18527;BME280;9393;42.158;24.748;2023-05-09T00:21:50;99931.59;;;15.03;100.00
18527;BME280;9393;42.158;24.748;2023-05-09T00:24:53;99930.59;;;14.96;100.00
18527;BME280;9393;42.158;24.748;2023-05-09T00:27:57;99931.69;;;14.85;100.00
18527;BME280;9393;42.158;24.748;2023-05-09T00:31:03;99938.56;;;14.78;100.00
18527;BME280;9393;42.158;24.748;2023-05-09T00:34:08;99931.59;;;15.03;100.00
18527;BME280;9393;42.158;24.748;2023-05-09T00:37:12;99940.69;;;15.41;100.00
18527;BME280;9393;42.158;24.748;2023-05-09T00:40:15;99944.84;;;14.85;100.00
18527;BME280;9393;42.158;24.748;2023-05-09T00:43:20;99950.22;;;14.84;100.00
18527;BME280;9393;42.158;24.748;2023-05-09T00:46:25;99951.78;;;15.02;100.00
18527;BME280;9393;42.158;24.748;2023-05-09T00:49:29;99950.09;;;14.93;100.00
18527;BME280;9393;42.158;24.748;2023-05-09T00:52:33;99956.53;;;14.99;100.00
18527;BME280;9393;42.158;24.748;2023-05-09T00:55:37;99951.38;;;14.81;100.00
18527;BME280;9393;42.158;24.748;2023-05-09T00:58:41;99950.22;;;14.84;100.00
18527;BME280;9393;42.158;24.748;2023-05-09T01:01:46;99958.66;;;15.03;100.00
18527;BME280;9393;42.158;24.748;2023-05-09T01:04:50;99962.50;;;15.25;99.69
18527;BME280;9393;42.158;24.748;2023-05-09T01:08:01;99960.03;;;15.24;99.66
18527;BME280;9393;42.158;24.748;2023-05-09T01:11:09;99960.34;;;15.12;99.40
18527;BME280;9393;42.158;24.748;2023-05-09T01:14:20;99959.88;;;15.25;99.55
18527;BME280;9393;42.158;24.748;2023-05-09T01:17:35;99958.66;;;15.03;100.00
18527;BME280;9393;42.158;24.748;2023-05-09T01:20:43;99964.78;;;15.12;99.14
18527;BME280;9393;42.158;24.748;2023-05-09T01:24:20;99966.53;;;14.95;100.00
18527;BME280;9393;42.158;24.748;2023-05-09T01:27:36;99966.75;;;15.18;100.00
18527;BME280;9393;42.158;24.748;2023-05-09T01:30:48;99963.63;;;15.14;99.99
18527;BME280;9393;42.158;24.748;2023-05-09T01:33:57;99965.88;;;15.01;98.83
18527;BME280;9393;42.158;24.748;2023-05-09T01:37:04;99963.72;;;14.97;99.39
18527;BME280;9393;42.158;24.748;2023-05-09T01:40:13;99963.03;;;14.87;99.72
18527;BME280;9393;42.158;24.748;2023-05-09T01:43:18;99965.94;;;14.68;100.00
18527;BME280;9393;42.158;24.748;2023-05-09T01:46:26;99963.81;;;14.79;99.54
18527;BME280;9393;42.158;24.748;2023-05-09T01:49:31;99970.22;;;14.43;100.00
18527;BME280;9393;42.158;24.748;2023-05-09T01:52:37;99965.03;;;14.51;100.00
18527;BME280;9393;42.158;24.748;2023-05-09T01:55:42;99973.75;;;14.51;100.00
18527;BME280;9393;42.158;24.748;2023-05-09T01:58:48;99967.47;;;14.78;100.00
18527;BME280;9393;42.158;24.748;2023-05-09T02:01:54;99968.78;;;14.90;98.71
18527;BME280;9393;42.158;24.748;2023-05-09T02:05:00;99976.56;;;14.66;99.64
18527;BME280;9393;42.158;24.748;2023-05-09T02:08:05;99978.16;;;14.85;99.86
18527;BME280;9393;42.158;24.748;2023-05-09T02:11:08;99975.16;;;14.80;100.00
18527;BME280;9393;42.158;24.748;2023-05-09T02:14:13;99983.59;;;14.91;99.47
18527;BME280;9393;42.158;24.748;2023-05-09T02:17:18;99980.16;;;14.57;100.00
18527;BME280;9393;42.158;24.748;2023-05-09T02:20:22;99988.78;;;14.83;100.00
18527;BME280;9393;42.158;24.748;2023-05-09T02:23:26;99977.25;;;14.68;100.00
18527;BME280;9393;42.158;24.748;2023-05-09T02:26:30;99971.97;;;14.60;100.00
18527;BME280;9393;42.158;24.748;2023-05-09T02:29:37;99985.41;;;14.99;98.47
18527;BME280;9393;42.158;24.748;2023-05-09T02:32:46;99982.56;;;14.84;99.31
18527;BME280;9393;42.158;24.748;2023-05-09T02:35:54;99996.53;;;14.85;99.45
18527;BME280;9393;42.158;24.748;2023-05-09T02:38:59;99993.72;;;14.86;99.99
18527;BME280;9393;42.158;24.748;2023-05-09T02:42:08;99994.78;;;15.01;99.43
18527;BME280;9393;42.158;24.748;2023-05-09T02:45:12;99997.25;;;14.69;100.00
18527;BME280;9393;42.158;24.748;2023-05-09T02:48:17;99997.25;;;15.03;99.02
18527;BME280;9393;42.158;24.748;2023-05-09T02:51:21;99995.34;;;14.79;99.58
18527;BME280;9393;42.158;24.748;2023-05-09T02:54:25;100000.56;;;14.37;100.00
18527;BME280;9393;42.158;24.748;2023-05-09T02:57:29;100000.28;;;14.82;99.90
18527;BME280;9393;42.158;24.748;2023-05-09T03:00:33;100004.34;;;14.69;99.91
18527;BME280;9393;42.158;24.748;2023-05-09T03:03:40;99999.56;;;14.72;99.78
18527;BME280;9393;42.158;24.748;2023-05-09T03:06:44;99994.25;;;14.56;100.00
18527;BME280;9393;42.158;24.748;2023-05-09T03:09:48;99997.97;;;14.79;100.00
18527;BME280;9393;42.158;24.748;2023-05-09T03:12:52;100005.25;;;14.93;99.28
18527;BME280;9393;42.158;24.748;2023-05-09T03:15:56;100017.84;;;14.82;99.29
18527;BME280;9393;42.158;24.748;2023-05-09T03:19:01;100023.94;;;14.82;99.68
18527;BME280;9393;42.158;24.748;2023-05-09T03:22:05;100029.97;;;14.83;99.41
18527;BME280;9393;42.158;24.748;2023-05-09T03:25:16;100028.25;;;14.65;100.00
18527;BME280;9393;42.158;24.748;2023-05-09T03:28:19;100033.72;;;14.46;100.00
18527;BME280;9393;42.158;24.748;2023-05-09T03:31:24;100035.28;;;14.57;100.00
18527;BME280;9393;42.158;24.748;2023-05-09T03:34:29;100037.22;;;14.55;100.00
18527;BME280;9393;42.158;24.748;2023-05-09T03:37:34;100034.72;;;14.79;100.00
18527;BME280;9393;42.158;24.748;2023-05-09T03:40:40;100037.72;;;14.84;99.52
18527;BME280;9393;42.158;24.748;2023-05-09T03:43:45;100042.72;;;15.03;99.17
18527;BME280;9393;42.158;24.748;2023-05-09T03:46:49;100048.66;;;15.13;98.52
18527;BME280;9393;42.158;24.748;2023-05-09T03:49:55;100048.75;;;15.30;97.57
18527;BME280;9393;42.158;24.748;2023-05-09T03:52:59;100051.22;;;14.89;99.36
18527;BME280;9393;42.158;24.748;2023-05-09T03:56:04;100048.03;;;14.78;100.00
18527;BME280;9393;42.158;24.748;2023-05-09T03:59:14;100042.88;;;14.68;100.00
18527;BME280;9393;42.158;24.748;2023-05-09T04:02:18;100049.56;;;14.88;99.12
18527;BME280;9393;42.158;24.748;2023-05-09T04:05:24;100050.59;;;14.70;100.00
18527;BME280;9393;42.158;24.748;2023-05-09T04:08:28;100050.00;;;14.84;100.00
18527;BME280;9393;42.158;24.748;2023-05-09T04:11:33;100043.53;;;14.70;100.00
18527;BME280;9393;42.158;24.748;2023-05-09T04:14:43;100058.84;;;14.75;100.00
18527;BME280;9393;42.158;24.748;2023-05-09T04:17:50;100059.66;;;15.09;98.79
18527;BME280;9393;42.158;24.748;2023-05-09T04:20:56;100066.44;;;15.28;98.00
18527;BME280;9393;42.158;24.748;2023-05-09T04:24:00;100056.84;;;15.02;98.64
18527;BME280;9393;42.158;24.748;2023-05-09T04:27:15;100066.53;;;15.02;99.12
18527;BME280;9393;42.158;24.748;2023-05-09T04:30:19;100066.16;;;14.97;99.17
18527;BME280;9393;42.158;24.748;2023-05-09T04:33:23;100068.84;;;15.05;97.55
18527;BME280;9393;42.158;24.748;2023-05-09T04:36:35;100060.00;;;14.80;99.21
18527;BME280;9393;42.158;24.748;2023-05-09T04:39:39;100060.69;;;14.82;99.22
18527;BME280;9393;42.158;24.748;2023-05-09T04:42:51;100065.56;;;14.77;99.76
18527;BME280;9393;42.158;24.748;2023-05-09T04:45:59;100073.00;;;14.90;99.37
18527;BME280;9393;42.158;24.748;2023-05-09T04:49:05;100069.47;;;14.73;99.19
18527;BME280;9393;42.158;24.748;2023-05-09T04:52:10;100066.22;;;14.79;100.00
18527;BME280;9393;42.158;24.748;2023-05-09T04:55:15;100071.66;;;14.78;99.67
18527;BME280;9393;42.158;24.748;2023-05-09T04:58:21;100070.63;;;14.71;99.79
18527;BME280;9393;42.158;24.748;2023-05-09T05:01:27;100061.41;;;14.92;98.51
18527;BME280;9393;42.158;24.748;2023-05-09T05:04:33;100061.72;;;14.89;98.31
18527;BME280;9393;42.158;24.748;2023-05-09T05:07:39;100073.44;;;14.77;99.12
18527;BME280;9393;42.158;24.748;2023-05-09T05:10:44;100075.56;;;14.99;98.10
18527;BME280;9393;42.158;24.748;2023-05-09T05:13:49;100072.78;;;14.75;98.18
18527;BME280;9393;42.158;24.748;2023-05-09T05:16:53;100075.81;;;14.37;100.00
18527;BME280;9393;42.158;24.748;2023-05-09T05:19:58;100085.47;;;14.62;99.43
18527;BME280;9393;42.158;24.748;2023-05-09T05:23:06;100082.16;;;14.78;98.40
18527;BME280;9393;42.158;24.748;2023-05-09T05:26:10;100082.41;;;14.92;97.66
18527;BME280;9393;42.158;24.748;2023-05-09T05:29:14;100081.88;;;14.63;98.96
18527;BME280;9393;42.158;24.748;2023-05-09T05:32:19;100081.88;;;14.63;98.47
18527;BME280;9393;42.158;24.748;2023-05-09T05:35:23;100088.94;;;14.62;98.93
18527;BME280;9393;42.158;24.748;2023-05-09T05:38:30;100082.91;;;14.70;98.85
18527;BME280;9393;42.158;24.748;2023-05-09T05:41:35;100084.97;;;15.18;97.26
18527;BME280;9393;42.158;24.748;2023-05-09T05:44:40;100098.97;;;15.27;94.84
18527;BME280;9393;42.158;24.748;2023-05-09T05:47:46;100098.44;;;15.49;94.38
18527;BME280;9393;42.158;24.748;2023-05-09T05:50:51;100098.63;;;15.22;94.35
18527;BME280;9393;42.158;24.748;2023-05-09T05:54:00;100102.31;;;14.77;95.72
18527;BME280;9393;42.158;24.748;2023-05-09T05:57:05;100101.34;;;14.78;96.30
18527;BME280;9393;42.158;24.748;2023-05-09T06:00:11;100096.75;;;14.80;96.24
18527;BME280;9393;42.158;24.748;2023-05-09T06:03:24;100093.97;;;14.56;96.69
18527;BME280;9393;42.158;24.748;2023-05-09T06:06:32;100100.31;;;14.71;96.88
18527;BME280;9393;42.158;24.748;2023-05-09T06:09:38;100096.75;;;14.80;96.91
18527;BME280;9393;42.158;24.748;2023-05-09T06:12:42;100091.63;;;14.71;96.72
18527;BME280;9393;42.158;24.748;2023-05-09T06:15:46;100100.09;;;14.90;95.97
18527;BME280;9393;42.158;24.748;2023-05-09T06:18:50;100101.50;;;14.51;97.57
18527;BME280;9393;42.158;24.748;2023-05-09T06:21:57;100101.22;;;14.62;97.18
18527;BME280;9393;42.158;24.748;2023-05-09T06:25:02;100101.16;;;14.72;96.42
18527;BME280;9393;42.158;24.748;2023-05-09T06:28:10;100100.84;;;14.75;96.56
18527;BME280;9393;42.158;24.748;2023-05-09T06:31:14;100104.25;;;15.01;95.86
18527;BME280;9393;42.158;24.748;2023-05-09T06:34:18;100103.09;;;14.95;95.36
18527;BME280;9393;42.158;24.748;2023-05-09T06:37:22;100100.22;;;14.81;95.78
18527;BME280;9393;42.158;24.748;2023-05-09T06:40:27;100110.72;;;14.81;96.17
18527;BME280;9393;42.158;24.748;2023-05-09T06:43:31;100104.97;;;14.77;96.25
18527;BME280;9393;42.158;24.748;2023-05-09T06:46:35;100099.28;;;14.90;95.74
18527;BME280;9393;42.158;24.748;2023-05-09T06:49:39;100091.38;;;14.82;94.76
18527;BME280;9393;42.158;24.748;2023-05-09T06:52:43;100097.88;;;15.03;94.87
18527;BME280;9393;42.158;24.748;2023-05-09T06:55:48;100097.97;;;14.86;95.57
18527;BME280;9393;42.158;24.748;2023-05-09T06:58:52;100102.47;;;15.01;92.95
18527;BME280;9393;42.158;24.748;2023-05-09T07:01:56;100104.81;;;14.79;95.41
18527;BME280;9393;42.158;24.748;2023-05-09T07:05:00;100117.06;;;14.70;95.73
18527;BME280;9393;42.158;24.748;2023-05-09T07:08:04;100108.66;;;14.92;95.75
18527;BME280;9393;42.158;24.748;2023-05-09T07:11:10;100109.94;;;14.88;95.85
18527;BME280;9393;42.158;24.748;2023-05-09T07:14:14;100112.91;;;14.85;95.07
18527;BME280;9393;42.158;24.748;2023-05-09T07:17:18;100116.81;;;14.81;95.32
18527;BME280;9393;42.158;24.748;2023-05-09T07:20:25;100122.97;;;14.98;94.33
18527;BME280;9393;42.158;24.748;2023-05-09T07:23:29;100119.78;;;14.86;95.22
18527;BME280;9393;42.158;24.748;2023-05-09T07:26:35;100118.34;;;14.92;94.57
18527;BME280;9393;42.158;24.748;2023-05-09T07:29:38;100121.09;;;15.16;94.18
18527;BME280;9393;42.158;24.748;2023-05-09T07:32:42;100112.44;;;15.24;93.03
18527;BME280;9393;42.158;24.748;2023-05-09T07:35:46;100116.88;;;14.97;94.13
18527;BME280;9393;42.158;24.748;2023-05-09T07:38:50;100112.84;;;15.03;94.17
18527;BME280;9393;42.158;24.748;2023-05-09T07:41:57;100118.72;;;15.31;93.09
18527;BME280;9393;42.158;24.748;2023-05-09T07:45:01;100116.28;;;15.45;93.09
18527;BME280;9393;42.158;24.748;2023-05-09T07:48:07;100123.41;;;15.53;91.03
18527;BME280;9393;42.158;24.748;2023-05-09T07:51:11;100118.81;;;15.21;91.71
18527;BME280;9393;42.158;24.748;2023-05-09T07:54:15;100120.72;;;15.11;92.34
18527;BME280;9393;42.158;24.748;2023-05-09T07:57:20;100124.06;;;15.21;92.31
18527;BME280;9393;42.158;24.748;2023-05-09T08:00:25;100125.69;;;15.14;92.80
18527;BME280;9393;42.158;24.748;2023-05-09T08:03:29;100133.03;;;15.10;92.09
18527;BME280;9393;42.158;24.748;2023-05-09T08:06:33;100129.81;;;15.16;93.00
18527;BME280;9393;42.158;24.748;2023-05-09T08:09:37;100124.06;;;15.21;91.97
18527;BME280;9393;42.158;24.748;2023-05-09T08:12:42;100128.41;;;15.04;91.79
18527;BME280;9393;42.158;24.748;2023-05-09T08:15:46;100126.00;;;15.11;93.30
18527;BME280;9393;42.158;24.748;2023-05-09T08:18:50;100119.97;;;15.18;90.45
18527;BME280;9393;42.158;24.748;2023-05-09T08:21:54;100118.16;;;15.19;91.57
18527;BME280;9393;42.158;24.748;2023-05-09T08:24:58;100124.84;;;15.13;91.83
18527;BME280;9393;42.158;24.748;2023-05-09T08:28:03;100132.34;;;15.00;92.04
18527;BME280;9393;42.158;24.748;2023-05-09T08:31:08;100126.31;;;15.08;91.70
18527;BME280;9393;42.158;24.748;2023-05-09T08:34:12;100124.38;;;14.84;91.88
18527;BME280;9393;42.158;24.748;2023-05-09T08:37:16;100125.44;;;14.99;91.98
18527;BME280;9393;42.158;24.748;2023-05-09T08:40:20;100122.84;;;15.07;91.59
18527;BME280;9393;42.158;24.748;2023-05-09T08:43:27;100124.13;;;14.95;91.21
18527;BME280;9393;42.158;24.748;2023-05-09T08:46:35;100130.09;;;15.13;91.97
18527;BME280;9393;42.158;24.748;2023-05-09T08:49:41;100126.75;;;15.03;90.84
18527;BME280;9393;42.158;24.748;2023-05-09T08:52:46;100119.41;;;15.07;91.11
18527;BME280;9393;42.158;24.748;2023-05-09T08:55:50;100122.81;;;14.99;91.77
18527;BME280;9393;42.158;24.748;2023-05-09T08:58:56;100120.78;;;15.19;91.66
18527;BME280;9393;42.158;24.748;2023-05-09T09:02:01;100117.25;;;15.02;91.84
18527;BME280;9393;42.158;24.748;2023-05-09T09:05:09;100122.47;;;15.28;90.81
18527;BME280;9393;42.158;24.748;2023-05-09T09:08:34;100119.44;;;15.15;90.85
18527;BME280;9393;42.158;24.748;2023-05-09T09:11:39;100122.97;;;14.98;91.33
18527;BME280;9393;42.158;24.748;2023-05-09T09:14:53;100118.91;;;15.37;90.06
18527;BME280;9393;42.158;24.748;2023-05-09T09:17:59;100121.81;;;15.34;89.69
18527;BME280;9393;42.158;24.748;2023-05-09T09:21:11;100120.91;;;15.43;88.16
18527;BME280;9393;42.158;24.748;2023-05-09T09:24:20;100115.25;;;15.30;88.18
18527;BME280;9393;42.158;24.748;2023-05-09T09:27:24;100126.38;;;15.50;87.60
18527;BME280;9393;42.158;24.748;2023-05-09T09:30:30;100114.34;;;15.13;90.21
18527;BME280;9393;42.158;24.748;2023-05-09T09:33:35;100106.81;;;15.18;87.95
18527;BME280;9393;42.158;24.748;2023-05-09T09:36:39;100113.91;;;15.60;86.87
18527;BME280;9393;42.158;24.748;2023-05-09T09:39:52;100112.94;;;15.61;86.59
18527;BME280;9393;42.158;24.748;2023-05-09T09:42:57;100113.66;;;15.95;85.53
18527;BME280;9393;42.158;24.748;2023-05-09T09:46:03;100107.75;;;16.01;85.20
18527;BME280;9393;42.158;24.748;2023-05-09T09:49:08;100108.75;;;16.33;84.34
18527;BME280;9393;42.158;24.748;2023-05-09T09:52:21;100114.53;;;16.36;82.69
18527;BME280;9393;42.158;24.748;2023-05-09T09:55:27;100102.81;;;15.82;83.08
18527;BME280;9393;42.158;24.748;2023-05-09T09:58:31;100107.53;;;15.71;86.35
18527;BME280;9393;42.158;24.748;2023-05-09T10:01:53;100114.56;;;15.62;84.93
18527;BME280;9393;42.158;24.748;2023-05-09T10:05:05;100116.56;;;15.68;83.44
18527;BME280;9393;42.158;24.748;2023-05-09T10:08:09;100115.13;;;15.40;85.15
18527;BME280;9393;42.158;24.748;2023-05-09T10:11:14;100115.38;;;15.54;84.64
18527;BME280;9393;42.158;24.748;2023-05-09T10:14:19;100112.50;;;15.82;83.38
18527;BME280;9393;42.158;24.748;2023-05-09T10:17:25;100112.69;;;15.46;83.15
18527;BME280;9393;42.158;24.748;2023-05-09T10:20:30;100117.41;;;15.69;83.87
18527;BME280;9393;42.158;24.748;2023-05-09T10:23:36;100116.81;;;15.99;83.16
18527;BME280;9393;42.158;24.748;2023-05-09T10:26:44;100123.53;;;16.01;81.98
18527;BME280;9393;42.158;24.748;2023-05-09T10:29:50;100110.22;;;16.11;81.30
18527;BME280;9393;42.158;24.748;2023-05-09T10:33:02;100121.22;;;15.98;82.80
18527;BME280;9393;42.158;24.748;2023-05-09T10:36:07;100119.09;;;16.02;82.47
18527;BME280;9393;42.158;24.748;2023-05-09T10:39:12;100126.34;;;16.16;81.91
18527;BME280;9393;42.158;24.748;2023-05-09T10:42:16;100124.53;;;16.25;81.36
18527;BME280;9393;42.158;24.748;2023-05-09T10:45:21;100126.53;;;16.23;79.91
18527;BME280;9393;42.158;24.748;2023-05-09T10:48:27;100126.81;;;16.03;82.13
18527;BME280;9393;42.158;24.748;2023-05-09T10:51:31;100123.38;;;16.35;80.36
18527;BME280;9393;42.158;24.748;2023-05-09T10:54:35;100124.69;;;16.15;80.89
18527;BME280;9393;42.158;24.748;2023-05-09T10:57:39;100123.22;;;16.04;81.34
18527;BME280;9393;42.158;24.748;2023-05-09T11:00:43;100113.94;;;15.76;82.71
18527;BME280;9393;42.158;24.748;2023-05-09T11:03:56;100123.13;;;15.72;82.60
18527;BME280;9393;42.158;24.748;2023-05-09T11:07:01;100121.50;;;15.79;82.95
18527;BME280;9393;42.158;24.748;2023-05-09T11:10:09;100120.38;;;15.82;82.67
18527;BME280;9393;42.158;24.748;2023-05-09T11:13:17;100121.19;;;15.74;82.86
18527;BME280;9393;42.158;24.748;2023-05-09T11:16:21;100105.94;;;15.86;81.58
18527;BME280;9393;42.158;24.748;2023-05-09T11:19:56;100117.88;;;15.72;81.38
18527;BME280;9393;42.158;24.748;2023-05-09T11:23:02;100107.91;;;16.00;80.82
18527;BME280;9393;42.158;24.748;2023-05-09T11:26:07;100105.31;;;16.32;79.33
18527;BME280;9393;42.158;24.748;2023-05-09T11:29:11;100101.84;;;16.56;78.10
18527;BME280;9393;42.158;24.748;2023-05-09T11:32:16;100097.88;;;16.52;77.80
18527;BME280;9393;42.158;24.748;2023-05-09T11:35:22;100091.00;;;16.59;76.51
18527;BME280;9393;42.158;24.748;2023-05-09T11:38:39;100110.22;;;16.92;76.28
18527;BME280;9393;42.158;24.748;2023-05-09T11:41:45;100107.25;;;16.87;75.96
18527;BME280;9393;42.158;24.748;2023-05-09T11:44:50;100101.66;;;16.82;75.74
18527;BME280;9393;42.158;24.748;2023-05-09T11:47:54;100106.75;;;16.91;75.39
18527;BME280;9393;42.158;24.748;2023-05-09T11:51:00;100106.06;;;16.97;75.66
18527;BME280;9393;42.158;24.748;2023-05-09T11:54:05;100093.44;;;16.52;76.86
18527;BME280;9393;42.158;24.748;2023-05-09T11:57:10;100097.38;;;16.73;77.21
18527;BME280;9393;42.158;24.748;2023-05-09T12:00:20;100095.63;;;16.65;76.57
18527;BME280;9393;42.158;24.748;2023-05-09T12:03:24;100099.69;;;16.51;77.23
18527;BME280;9393;42.158;24.748;2023-05-09T12:06:30;100098.06;;;16.42;76.31
18527;BME280;9393;42.158;24.748;2023-05-09T12:09:34;100096.25;;;16.18;76.80
18527;BME280;9393;42.158;24.748;2023-05-09T12:12:44;100096.91;;;16.21;77.26
18527;BME280;9393;42.158;24.748;2023-05-09T12:15:49;100101.66;;;16.41;77.01
18527;BME280;9393;42.158;24.748;2023-05-09T12:18:53;100098.22;;;16.49;76.83
18527;BME280;9393;42.158;24.748;2023-05-09T12:22:00;100097.56;;;16.06;77.09
18527;BME280;9393;42.158;24.748;2023-05-09T12:25:07;100084.41;;;15.98;77.49
18527;BME280;9393;42.158;24.748;2023-05-09T12:28:12;100078.94;;;15.76;78.44
18527;BME280;9393;42.158;24.748;2023-05-09T12:31:16;100076.34;;;16.24;78.53
18527;BME280;9393;42.158;24.748;2023-05-09T12:34:20;100074.53;;;16.49;76.18
18527;BME280;9393;42.158;24.748;2023-05-09T12:37:25;100077.97;;;16.41;76.72
18527;BME280;9393;42.158;24.748;2023-05-09T12:40:30;100066.66;;;16.41;76.27
18527;BME280;9393;42.158;24.748;2023-05-09T12:43:35;100064.66;;;16.10;78.23
18527;BME280;9393;42.158;24.748;2023-05-09T12:46:40;100066.31;;;16.28;77.55
18527;BME280;9393;42.158;24.748;2023-05-09T12:49:48;100066.00;;;15.98;77.64
18527;BME280;9393;42.158;24.748;2023-05-09T12:52:53;100063.03;;;16.09;77.87
18527;BME280;9393;42.158;24.748;2023-05-09T12:56:11;100063.00;;;15.93;78.32
18527;BME280;9393;42.158;24.748;2023-05-09T12:59:19;100052.50;;;15.93;78.83
18527;BME280;9393;42.158;24.748;2023-05-09T13:02:25;100057.09;;;16.32;77.79
18527;BME280;9393;42.158;24.748;2023-05-09T13:05:30;100055.94;;;16.18;77.42
18527;BME280;9393;42.158;24.748;2023-05-09T13:08:36;100050.81;;;16.49;76.14
18527;BME280;9393;42.158;24.748;2023-05-09T13:11:40;100049.13;;;16.88;75.31
18527;BME280;9393;42.158;24.748;2023-05-09T13:14:44;100042.94;;;16.65;75.98
18527;BME280;9393;42.158;24.748;2023-05-09T13:17:49;100046.16;;;16.83;75.12
18527;BME280;9393;42.158;24.748;2023-05-09T13:20:53;100046.34;;;16.82;75.44
18527;BME280;9393;42.158;24.748;2023-05-09T13:23:58;100044.91;;;16.71;75.81
18527;BME280;9393;42.158;24.748;2023-05-09T13:27:02;100039.16;;;16.43;76.74
18527;BME280;9393;42.158;24.748;2023-05-09T13:30:07;100041.94;;;16.66;76.10
18527;BME280;9393;42.158;24.748;2023-05-09T13:33:11;100044.91;;;16.63;76.01
18527;BME280;9393;42.158;24.748;2023-05-09T13:36:27;100040.25;;;16.81;76.04
18527;BME280;9393;42.158;24.748;2023-05-09T13:39:32;100040.13;;;16.58;75.53
18527;BME280;9393;42.158;24.748;2023-05-09T13:42:37;100040.97;;;16.51;75.81
18527;BME280;9393;42.158;24.748;2023-05-09T13:45:41;100042.63;;;16.60;75.62
18527;BME280;9393;42.158;24.748;2023-05-09T13:48:45;100034.03;;;16.74;76.27
18527;BME280;9393;42.158;24.748;2023-05-09T13:51:49;100036.72;;;16.58;74.52
18527;BME280;9393;42.158;24.748;2023-05-09T13:54:55;100046.22;;;16.59;75.75
18527;BME280;9393;42.158;24.748;2023-05-09T13:57:58;100047.06;;;16.43;76.03
18527;BME280;9393;42.158;24.748;2023-05-09T14:01:02;100050.03;;;16.08;77.34
18527;BME280;9393;42.158;24.748;2023-05-09T14:04:07;100045.28;;;16.11;77.19
18527;BME280;9393;42.158;24.748;2023-05-09T14:07:11;100043.28;;;16.13;75.55
18527;BME280;9393;42.158;24.748;2023-05-09T14:10:17;100035.06;;;16.00;75.84
18527;BME280;9393;42.158;24.748;2023-05-09T14:13:21;100039.69;;;16.23;75.39
18527;BME280;9393;42.158;24.748;2023-05-09T14:16:26;100044.25;;;16.21;74.82
18527;BME280;9393;42.158;24.748;2023-05-09T14:19:30;100049.53;;;16.21;75.18
18527;BME280;9393;42.158;24.748;2023-05-09T14:22:34;100041.00;;;16.27;75.83
18527;BME280;9393;42.158;24.748;2023-05-09T14:25:40;100045.28;;;16.20;76.00
18527;BME280;9393;42.158;24.748;2023-05-09T14:28:43;100047.25;;;16.26;75.54
18527;BME280;9393;42.158;24.748;2023-05-09T14:31:47;100043.28;;;16.22;75.18
18527;BME280;9393;42.158;24.748;2023-05-09T14:34:51;100043.47;;;16.20;75.85
18527;BME280;9393;42.158;24.748;2023-05-09T14:37:55;100048.88;;;16.18;76.56
18527;BME280;9393;42.158;24.748;2023-05-09T14:41:01;100053.81;;;16.05;75.77
18527;BME280;9393;42.158;24.748;2023-05-09T14:44:05;100047.88;;;16.03;75.93
18527;BME280;9393;42.158;24.748;2023-05-09T14:47:09;100052.50;;;16.34;74.94
18527;BME280;9393;42.158;24.748;2023-05-09T14:50:13;100053.16;;;16.20;74.73
18527;BME280;9393;42.158;24.748;2023-05-09T14:53:18;100054.63;;;16.14;75.14
18527;BME280;9393;42.158;24.748;2023-05-09T14:56:25;100051.53;;;16.18;74.78
18527;BME280;9393;42.158;24.748;2023-05-09T14:59:29;100046.59;;;16.15;75.37
18527;BME280;9393;42.158;24.748;2023-05-09T15:02:34;100049.22;;;15.99;75.78
18527;BME280;9393;42.158;24.748;2023-05-09T15:05:39;100050.88;;;15.92;76.58
18527;BME280;9393;42.158;24.748;2023-05-09T15:08:43;100053.00;;;16.13;75.96
18527;BME280;9393;42.158;24.748;2023-05-09T15:11:49;100055.28;;;16.40;75.60
18527;BME280;9393;42.158;24.748;2023-05-09T15:14:53;100040.00;;;16.28;75.46
18527;BME280;9393;42.158;24.748;2023-05-09T15:17:57;100041.97;;;16.01;76.95
18527;BME280;9393;42.158;24.748;2023-05-09T15:21:02;100043.94;;;16.32;75.12
18527;BME280;9393;42.158;24.748;2023-05-09T15:24:06;100046.25;;;16.10;76.59
18527;BME280;9393;42.158;24.748;2023-05-09T15:27:12;100045.44;;;16.10;75.90
18527;BME280;9393;42.158;24.748;2023-05-09T15:30:16;100050.69;;;15.78;77.12
18527;BME280;9393;42.158;24.748;2023-05-09T15:33:20;100040.97;;;15.70;77.53
18527;BME280;9393;42.158;24.748;2023-05-09T15:36:24;100044.81;;;15.42;77.34
18527;BME280;9393;42.158;24.748;2023-05-09T15:39:32;100048.13;;;15.02;79.62
18527;BME280;9393;42.158;24.748;2023-05-09T15:42:38;100050.56;;;14.95;79.94
18527;BME280;9393;42.158;24.748;2023-05-09T15:45:42;100040.19;;;14.86;80.54
18527;BME280;9393;42.158;24.748;2023-05-09T15:48:46;100039.50;;;14.84;79.65
18527;BME280;9393;42.158;24.748;2023-05-09T15:51:50;100043.34;;;14.89;79.99
18527;BME280;9393;42.158;24.748;2023-05-09T15:54:55;100042.31;;;14.90;81.49
18527;BME280;9393;42.158;24.748;2023-05-09T15:58:01;100047.63;;;14.98;82.48
18527;BME280;9393;42.158;24.748;2023-05-09T16:01:05;100039.75;;;14.98;83.33
18527;BME280;9393;42.158;24.748;2023-05-09T16:04:09;100040.72;;;14.97;83.39
18527;BME280;9393;42.158;24.748;2023-05-09T16:07:15;100046.47;;;14.67;84.01
18527;BME280;9393;42.158;24.748;2023-05-09T16:10:20;100045.75;;;14.57;85.67